Eolia, Missouri
Current Conditions -  °F | °C
As of 3:35 PM on Wednesday 26 Nov 2014 (Local Time) from KPPQ Reporting Station
Overcast Overcast  
Wind Chill: 27°   Ceiling: 400
Heat Index: 33°   Visibility: 1.2mi
Dew Point: 32°   Wind: 7mph
Humidity: 96%   Direction: 110°ESE
Pressure: 30.01"   Gusts: NA
Location:  39.24°N, 91.01°W
Report Text: KPPQ 262135Z AUTO 11006KT 1 1/4SM OVC004 01/00 A3001 RMK AO2 T00050000 PWINO
Loading
Personal Weather Stations






























Interactive Weather Map New forecast layout! Learn more

10-Day Weather Forecast

Advertisements
Track Severe Weather on mobile